createdAt,value
2022-12-03T00:03:21.536Z,34.29
2022-12-03T00:09:46.121Z,34.31
2022-12-03T00:16:10.761Z,34.56
2022-12-03T00:22:35.157Z,34.43
2022-12-03T00:28:59.448Z,34.46
2022-12-03T00:35:23.871Z,34.80
2022-12-03T00:41:48.220Z,35.00
2022-12-03T00:48:12.619Z,34.94
2022-12-03T00:54:36.924Z,34.87
2022-12-03T01:01:01.387Z,35.04
2022-12-03T01:07:25.931Z,35.11
2022-12-03T01:13:50.587Z,35.01
2022-12-03T01:20:15.964Z,35.20
2022-12-03T01:26:33.382Z,35.40
2022-12-03T01:32:57.798Z,35.22
2022-12-03T01:39:22.225Z,35.44
2022-12-03T01:45:46.677Z,35.34
2022-12-03T01:52:11.047Z,35.57
2022-12-03T01:58:35.417Z,35.60
2022-12-03T02:04:59.685Z,35.80
2022-12-03T02:11:24.053Z,35.86
2022-12-03T02:17:48.447Z,35.73
2022-12-03T02:24:21.580Z,35.88
2022-12-03T02:30:46.175Z,36.08
2022-12-03T02:37:10.705Z,35.87
2022-12-03T02:43:35.111Z,36.23
2022-12-03T02:49:59.531Z,36.09
2022-12-03T02:56:23.932Z,36.07
2022-12-03T03:02:48.359Z,36.06
2022-12-03T03:09:12.649Z,36.15
2022-12-03T03:15:37.059Z,36.09
2022-12-03T03:22:01.472Z,36.36
2022-12-03T03:28:25.784Z,36.39
2022-12-03T03:34:50.187Z,36.40
2022-12-03T03:41:13.578Z,36.46
2022-12-03T03:47:28.194Z,36.43
2022-12-03T03:53:52.920Z,36.25
2022-12-03T04:00:17.240Z,36.47
2022-12-03T04:06:41.630Z,36.48
2022-12-03T04:13:17.992Z,36.69
2022-12-03T04:19:42.334Z,36.86
2022-12-03T04:26:05.117Z,36.76
2022-12-03T04:32:28.023Z,36.71
2022-12-03T04:38:52.377Z,36.86
2022-12-03T04:45:16.689Z,36.82
2022-12-03T04:51:41.022Z,36.64
2022-12-03T04:58:05.429Z,36.71
2022-12-03T05:04:29.707Z,36.75
2022-12-03T05:10:37.092Z,36.70
2022-12-03T05:16:44.589Z,36.91
2022-12-03T05:23:09.117Z,37.18
2022-12-03T05:29:33.492Z,37.35
2022-12-03T05:35:57.841Z,37.20
2022-12-03T05:42:21.266Z,37.31
2022-12-03T05:48:45.820Z,37.12
2022-12-03T05:55:10.137Z,36.92
2022-12-03T06:01:34.428Z,36.78
2022-12-03T06:07:58.912Z,36.49
2022-12-03T06:14:23.464Z,36.45
2022-12-03T06:20:48.070Z,36.19
2022-12-03T06:27:12.400Z,35.93
2022-12-03T06:33:36.758Z,35.92
2022-12-03T06:39:59.815Z,35.67
2022-12-03T06:46:24.237Z,35.58
2022-12-03T06:52:48.598Z,35.10
2022-12-03T06:59:13.011Z,35.08
2022-12-03T07:05:37.320Z,34.94
2022-12-03T07:12:01.667Z,34.89
2022-12-03T07:18:26.365Z,34.79
2022-12-03T07:24:50.851Z,34.90
2022-12-03T07:31:15.730Z,34.55
2022-12-03T07:37:40.206Z,34.58
2022-12-03T07:44:07.838Z,34.28
2022-12-03T07:50:36.923Z,33.85
2022-12-03T07:57:01.969Z,33.69
2022-12-03T08:03:26.577Z,33.48
2022-12-03T08:09:41.992Z,33.27
2022-12-03T08:16:15.341Z,33.35
2022-12-03T08:22:33.778Z,33.37
2022-12-03T08:28:58.181Z,33.54
2022-12-03T08:35:22.544Z,34.06
2022-12-03T08:41:54.265Z,34.49
2022-12-03T08:48:21.681Z,34.35
2022-12-03T08:54:48.803Z,34.74
2022-12-03T09:01:16.291Z,34.77
2022-12-03T09:07:40.876Z,35.19
2022-12-03T09:14:05.426Z,34.96
2022-12-03T09:20:29.727Z,35.59
2022-12-03T09:26:54.406Z,36.55
2022-12-03T09:33:18.780Z,36.96
2022-12-03T09:39:43.098Z,36.71
2022-12-03T09:46:07.818Z,37.54
2022-12-03T09:52:32.172Z,37.48
2022-12-03T09:58:56.589Z,37.63
2022-12-03T10:05:20.985Z,38.17
2022-12-03T10:11:45.307Z,38.93
2022-12-03T10:18:09.717Z,40.28
2022-12-03T10:24:32.295Z,40.84
2022-12-03T10:30:59.681Z,41.55
2022-12-03T10:37:24.185Z,42.10
2022-12-03T10:44:00.500Z,42.75
2022-12-03T10:50:25.063Z,43.18
2022-12-03T10:56:50.433Z,43.07
2022-12-03T11:03:20.710Z,44.03
2022-12-03T11:09:45.156Z,44.00
2022-12-03T11:16:24.519Z,44.25
2022-12-03T11:23:07.291Z,41.02
2022-12-03T11:29:34.751Z,38.48
2022-12-03T11:36:04.880Z,37.93
2022-12-03T11:42:29.348Z,38.21
2022-12-03T11:48:59.505Z,38.12
2022-12-03T11:55:23.905Z,37.69
2022-12-03T12:01:57.273Z,37.92
2022-12-03T12:08:29.181Z,37.95
2022-12-03T12:14:53.506Z,37.59
2022-12-03T12:21:23.820Z,37.69
2022-12-03T12:27:51.171Z,37.76
2022-12-03T12:34:07.740Z,37.68
2022-12-03T12:40:32.147Z,37.64
2022-12-03T12:46:48.987Z,37.00
2022-12-03T12:53:21.804Z,36.93
2022-12-03T12:59:52.123Z,36.55
2022-12-03T13:06:19.385Z,36.37
2022-12-03T13:12:43.768Z,36.23
2022-12-03T13:19:13.820Z,36.11
2022-12-03T13:32:31.356Z,35.45
2022-12-03T13:38:55.638Z,35.61
2022-12-03T13:45:20.030Z,35.73
2022-12-03T13:51:42.539Z,35.40
2022-12-03T13:58:07.017Z,35.31
2022-12-03T14:04:31.426Z,35.56
2022-12-03T14:11:00.435Z,35.64
2022-12-03T14:17:25.273Z,36.26
2022-12-03T14:23:49.627Z,35.99
2022-12-03T14:30:14.017Z,36.18
2022-12-03T14:36:38.295Z,36.09
2022-12-03T14:43:02.844Z,35.83
2022-12-03T14:49:27.148Z,35.96
2022-12-03T14:55:51.416Z,35.70
2022-12-03T15:02:15.857Z,35.93
2022-12-03T15:08:40.508Z,36.69
2022-12-03T15:15:05.001Z,37.18
2022-12-03T15:21:29.285Z,37.11
2022-12-03T15:26:53.732Z,36.58
2022-12-03T15:31:59.550Z,35.55
2022-12-03T15:37:02.885Z,35.31
2022-12-03T15:42:06.094Z,35.31
2022-12-03T15:47:09.336Z,35.39
2022-12-03T15:52:12.643Z,35.51
2022-12-03T15:57:16.113Z,35.66
2022-12-03T16:02:19.618Z,35.92
2022-12-03T16:07:22.969Z,35.85
2022-12-03T16:12:26.220Z,35.90
2022-12-03T16:17:29.624Z,35.73
2022-12-03T16:22:32.876Z,35.78
2022-12-03T16:27:38.163Z,35.75
2022-12-03T16:32:41.988Z,35.80
2022-12-03T16:37:45.253Z,35.54
2022-12-03T16:42:48.493Z,35.68
2022-12-03T16:47:51.787Z,35.56
2022-12-03T16:52:55.149Z,35.45
2022-12-03T16:57:58.465Z,35.27
2022-12-03T17:03:01.815Z,35.14
2022-12-03T17:08:05.213Z,35.04
2022-12-03T17:13:10.510Z,34.64
2022-12-03T17:18:14.208Z,34.68
2022-12-03T17:23:17.976Z,34.46
2022-12-03T17:28:21.297Z,33.81
2022-12-03T17:33:24.554Z,33.50
2022-12-03T17:38:28.035Z,33.89
2022-12-03T17:43:31.346Z,33.71
2022-12-03T17:48:35.413Z,33.69
2022-12-03T17:53:38.697Z,33.81
2022-12-03T17:58:42.040Z,34.45
2022-12-03T18:03:45.486Z,34.61
2022-12-03T18:08:48.823Z,34.77
2022-12-03T18:13:52.164Z,34.62
2022-12-03T18:18:57.653Z,34.67
2022-12-03T18:24:04.004Z,34.81
2022-12-03T18:29:07.332Z,34.80
2022-12-03T18:34:10.618Z,34.47
2022-12-03T18:39:30.325Z,34.62
2022-12-03T18:44:34.238Z,34.69
2022-12-03T18:49:37.590Z,34.45
2022-12-03T18:54:41.042Z,34.27
2022-12-03T18:59:44.431Z,33.94
2022-12-03T19:04:48.322Z,33.88
2022-12-03T19:09:51.969Z,33.79
2022-12-03T19:14:55.575Z,33.65
2022-12-03T19:19:58.962Z,33.88
2022-12-03T19:25:03.238Z,33.63
2022-12-03T19:30:07.522Z,33.49
2022-12-03T19:35:11.601Z,33.38
2022-12-03T19:40:15.788Z,33.15
2022-12-03T19:45:19.204Z,33.30
2022-12-03T19:50:23.705Z,33.09
2022-12-03T19:55:27.318Z,33.34
2022-12-03T20:00:30.681Z,32.90
2022-12-03T20:05:38.424Z,32.85
2022-12-03T20:10:41.897Z,32.92
2022-12-03T20:15:45.233Z,33.23
2022-12-03T20:20:48.564Z,33.23
2022-12-03T20:25:51.968Z,33.23
2022-12-03T20:31:05.089Z,33.30
2022-12-03T20:36:09.832Z,33.41
2022-12-03T20:41:15.890Z,33.46
2022-12-03T20:46:26.010Z,33.61
2022-12-03T20:51:31.115Z,33.35
2022-12-03T20:56:39.490Z,33.49
2022-12-03T21:01:44.316Z,33.59
2022-12-03T21:06:47.793Z,33.42
2022-12-03T21:11:51.251Z,33.41
2022-12-03T21:17:11.957Z,33.46
2022-12-03T21:22:15.445Z,33.23
2022-12-03T21:27:21.906Z,33.47
2022-12-03T21:32:25.568Z,33.59
2022-12-03T21:37:28.970Z,33.66
2022-12-03T21:42:35.629Z,33.94
2022-12-03T21:47:41.282Z,34.17
2022-12-03T21:52:44.762Z,34.18
2022-12-03T21:57:48.197Z,34.34
2022-12-03T22:02:52.668Z,34.70
2022-12-03T22:07:56.309Z,34.98
2022-12-03T22:13:00.363Z,35.06
2022-12-03T22:18:04.505Z,35.02
2022-12-03T22:23:07.935Z,35.21
2022-12-03T22:28:11.279Z,35.01
2022-12-03T22:33:14.611Z,35.15
2022-12-03T22:38:17.977Z,35.35
2022-12-03T22:43:22.277Z,35.29
2022-12-03T22:48:25.666Z,35.38
2022-12-03T22:53:29.070Z,35.50
2022-12-03T22:58:32.936Z,35.49
2022-12-03T23:03:37.511Z,35.75
2022-12-03T23:08:40.996Z,35.55
2022-12-03T23:13:44.860Z,35.55
2022-12-03T23:18:48.819Z,35.63
2022-12-03T23:23:52.282Z,35.64
2022-12-03T23:28:56.388Z,35.74
2022-12-03T23:34:00.449Z,35.89
2022-12-03T23:39:03.977Z,35.78
2022-12-03T23:44:07.354Z,35.77
2022-12-03T23:49:10.731Z,35.77
2022-12-03T23:54:14.241Z,35.72
2022-12-03T23:59:17.593Z,35.90
